Clifford Maersk — OYRO2 — position and weather

sailwx.info

Track history (hours):
 
Tides and Currents Weather Stations Pressure Air Temp Water Temp Dewpoint Dewpoint Depression Visibility Wind Speed Wind Dir Waves Ship Positions

Clifford Maersk

Last reported at 2017-Dec-11 16:32 UTC. Time now 2017-Dec-11 19:19 UTC.
Position N 41°34' E 141°39'.

Type: Ship (hazmat cat A). MMSI: 219840000.

Date/timePositionNaut miles runAvg speedWind from/ knotsBaromVisibWave heightAir tempDewpointWater temp
2017-Dec-11 16:32N 41°34' E 141°39'121.9
2017-Dec-11 16:30N 41°34' E 141°38'1122.4
2017-Dec-11 16:00N 41°35' E 141°23'1122.0
2017-Dec-11 15:30N 41°35' E 141°08'1121.8
2017-Dec-11 15:00N 41°36' E 140°54'1121.4
2017-Dec-11 14:30N 41°30' E 140°41'1121.6
2017-Dec-11 14:00N 41°24' E 140°30'1221.6
2017-Dec-11 13:28N 41°17' E 140°17'  
2017-Dec-08 02:03N 30°35' E 122°07'  
Track history (hours):
 
Tides and Currents Weather Stations Pressure Air Temp Water Temp Dewpoint Dewpoint Depression Visibility Wind Speed Wind Dir Waves Ship Positions

Clifford Maersk

Last reported at 2017-Dec-11 16:32 UTC. Time now 2017-Dec-11 19:19 UTC.
Position N 41°34' E 141°39'.

Type: Ship (hazmat cat A). MMSI: 219840000.

Date/timePositionNaut miles runAvg speedWind from/ knotsBaromVisibWave heightAir tempDewpointWater temp
2017-Dec-11 16:32N 41°34' E 141°39'121.9
2017-Dec-11 16:30N 41°34' E 141°38'1122.4
2017-Dec-11 16:00N 41°35' E 141°23'1122.0
2017-Dec-11 15:30N 41°35' E 141°08'1121.8
2017-Dec-11 15:00N 41°36' E 140°54'1121.4
2017-Dec-11 14:30N 41°30' E 140°41'1121.6
2017-Dec-11 14:00N 41°24' E 140°30'1221.6
2017-Dec-11 13:28N 41°17' E 140°17'  
2017-Dec-08 02:03N 30°35' E 122°07'  

Dump ship's entire track history